Terminal Aerodrome Forecast
Issued by NWS

Home | Current Version | Previous Version | Text Only | Print | Product List | Glossary On
Versions: 1 2 3 4 5 6 7 8 9 10 11 12 13 14 15 16 17 18 19 20 21 22 23 24 25 26 27 28 29 30
000
FTUS46 KPDT 301720
TAFALW
TAF
KALW 301720Z 3018/3118 18020G30KT P6SM -SHRA SCT025 BKN035 OVC060
     FM302100 22020G30KT P6SM VCSH BKN035 OVC060
     FM310300 19011G19KT P6SM VCSH SCT035 BKN040 OVC060
     FM310600 18010KT P6SM OVC050
     FM311500 21013KT P6SM BKN035 BKN050 OVC080=

USA.gov is the U.S. government's official web portal to all federal, state and local government web resources and services.